Time;durP1;ratioP1;P1;durP2;ratioP2;P2;SDS_P1;SDS_P2;PMS_P1;PMS_P2;Temp;Humidity;BMP_temperature;BMP_pressure;BME280_temperature;BME280_humidity;BME280_pressure;Samples;Min_cycle;Max_cycle;Signal;HPM_P1;HPM_P2
2021/01/09 00:03:14;;;;;;;85.17;30.03;;;;;-1.40;101660.00;;;;10429603;28;20237;-77
2021/01/09 00:08:21;;;;;;;60.20;28.70;;;;;-1.40;101662.00;;;;10405359;28;20301;-77
2021/01/09 00:13:23;;;;;;;107.90;32.93;;;;;-1.50;101668.00;;;;10420213;28;20186;-77
2021/01/09 00:18:25;;;;;;;67.23;30.50;;;;;-1.50;101674.00;;;;10410256;28;20198;-77
2021/01/09 00:23:27;;;;;;;74.73;32.80;;;;;-1.50;101681.00;;;;10452973;28;20209;-77
2021/01/09 00:28:28;;;;;;;100.23;28.90;;;;;-1.50;101683.00;;;;10412385;28;20186;-77
2021/01/09 00:33:30;;;;;;;65.80;27.27;;;;;-1.50;101701.00;;;;10406093;28;20190;-77
2021/01/09 00:38:31;;;;;;;73.13;27.97;;;;;-1.50;101694.00;;;;10401871;28;20273;-77
2021/01/09 00:43:32;;;;;;;73.40;33.03;;;;;-1.60;101692.00;;;;10418480;28;20272;-77
2021/01/09 00:48:34;;;;;;;70.30;35.63;;;;;-1.60;101696.00;;;;10457870;28;21011;-77
2021/01/09 00:53:35;;;;;;;61.43;33.17;;;;;-1.60;101698.00;;;;10442909;28;20183;-76
2021/01/09 00:58:37;;;;;;;44.07;22.70;;;;;-1.70;101708.00;;;;10383181;28;20199;-76
2021/01/09 01:03:39;;;;;;;38.33;20.47;;;;;-1.70;101704.00;;;;10399157;28;20238;-76
2021/01/09 01:08:41;;;;;;;35.27;18.97;;;;;-1.70;101701.00;;;;10438722;28;20198;-76
2021/01/09 01:13:42;;;;;;;45.07;21.07;;;;;-1.80;101707.00;;;;10419224;28;20290;-76
2021/01/09 01:18:43;;;;;;;34.90;19.07;;;;;-1.80;101709.00;;;;10439492;28;20224;-76
2021/01/09 01:23:45;;;;;;;37.23;20.17;;;;;-1.80;101704.00;;;;10405655;28;20199;-77
2021/01/09 01:28:46;;;;;;;53.47;20.03;;;;;-1.80;101716.00;;;;10457401;28;20186;-77
2021/01/09 01:33:47;;;;;;;61.33;20.30;;;;;-1.90;101716.00;;;;10422853;28;20202;-77
2021/01/09 01:38:49;;;;;;;69.67;23.07;;;;;-1.90;101725.00;;;;10382298;28;20573;-77
2021/01/09 01:43:50;;;;;;;49.70;21.17;;;;;-2.00;101722.00;;;;10415612;28;20222;-76
2021/01/09 01:48:52;;;;;;;34.13;19.70;;;;;-2.10;101726.00;;;;10455654;28;20190;-76
2021/01/09 01:53:55;;;;;;;37.37;22.67;;;;;-2.10;101726.00;;;;10406200;28;20190;-77
2021/01/09 01:58:56;;;;;;;52.50;23.60;;;;;-2.10;101726.00;;;;10438629;28;20649;-76
2021/01/09 02:03:58;;;;;;;45.50;21.77;;;;;-2.10;101726.00;;;;10438779;28;20210;-77
2021/01/09 02:09:10;;;;;;;34.30;20.57;;;;;-2.10;101728.00;;;;10456050;28;20573;-77
2021/01/09 02:14:45;;;;;;;31.60;19.93;;;;;-2.20;101733.00;;;;10439719;28;20229;-77
2021/01/09 02:19:46;;;;;;;33.83;20.10;;;;;-2.20;101737.00;;;;10391142;28;20230;-77
2021/01/09 02:24:48;;;;;;;38.53;20.80;;;;;-2.30;101744.00;;;;10381442;28;20293;-77
2021/01/09 02:30:21;;;;;;;35.40;19.97;;;;;-2.40;101740.00;;;;10380770;28;20202;-77
2021/01/09 02:35:26;;;;;;;37.70;22.00;;;;;-2.40;101733.00;;;;10394013;28;20205;-77
2021/01/09 02:40:28;;;;;;;44.03;24.33;;;;;-2.40;101732.00;;;;10372778;28;20194;-77
2021/01/09 02:45:29;;;;;;;44.63;24.23;;;;;-2.40;101730.00;;;;10427720;28;20685;-77
2021/01/09 02:50:31;;;;;;;39.37;23.37;;;;;-2.40;101731.00;;;;10424820;28;20194;-77
2021/01/09 02:55:32;;;;;;;44.70;24.10;;;;;-2.40;101730.00;;;;10389020;28;20210;-77
2021/01/09 03:00:34;;;;;;;46.57;26.23;;;;;-2.50;101737.00;;;;10388064;28;20199;-77
2021/01/09 03:05:36;;;;;;;50.17;25.63;;;;;-2.50;101729.00;;;;10445078;28;20208;-77
2021/01/09 03:10:37;;;;;;;38.43;23.10;;;;;-2.50;101731.00;;;;10429473;28;20204;-77
2021/01/09 03:15:39;;;;;;;39.43;22.30;;;;;-2.50;101742.00;;;;10445754;28;20530;-77
2021/01/09 03:20:40;;;;;;;41.63;23.70;;;;;-2.50;101758.00;;;;10429402;28;20305;-77
2021/01/09 03:25:42;;;;;;;38.67;23.10;;;;;-2.60;101761.00;;;;10430471;28;20191;-77
2021/01/09 03:30:43;;;;;;;37.03;22.03;;;;;-2.60;101763.00;;;;10404254;28;20285;-77
2021/01/09 03:35:45;;;;;;;39.53;21.73;;;;;-2.60;101751.00;;;;10403080;28;20222;-77
2021/01/09 03:40:46;;;;;;;37.80;21.83;;;;;-2.60;101764.00;;;;10386806;28;20226;-77
2021/01/09 03:45:48;;;;;;;34.43;20.93;;;;;-2.70;101760.00;;;;10418797;28;20573;-77
2021/01/09 03:50:49;;;;;;;41.80;23.23;;;;;-2.80;101763.00;;;;10444166;28;20201;-77
2021/01/09 03:55:51;;;;;;;36.47;20.73;;;;;-2.80;101759.00;;;;10427032;28;20194;-77
2021/01/09 04:00:52;;;;;;;35.93;19.50;;;;;-2.80;101759.00;;;;10443264;28;20194;-77
2021/01/09 04:05:56;;;;;;;36.67;20.53;;;;;-2.90;101750.00;;;;10395746;28;20654;-77
2021/01/09 04:10:57;;;;;;;33.63;19.63;;;;;-2.90;101755.00;;;;10369614;28;20194;-77
2021/01/09 04:16:09;;;;;;;31.23;19.50;;;;;-2.90;101758.00;;;;10394943;28;20203;-77
2021/01/09 04:21:17;;;;;;;31.67;19.80;;;;;-2.90;101756.00;;;;10396510;28;20246;-77
2021/01/09 04:26:19;;;;;;;38.77;21.37;;;;;-2.90;101746.00;;;;10404894;28;20571;-77
2021/01/09 04:31:21;;;;;;;32.77;18.87;;;;;-2.90;101751.00;;;;10417638;28;20651;-77
2021/01/09 04:36:23;;;;;;;34.50;19.87;;;;;-2.80;101755.00;;;;10385464;28;20206;-77
2021/01/09 04:41:26;;;;;;;38.53;21.73;;;;;-2.70;101769.00;;;;10401511;28;20209;-77
2021/01/09 04:46:29;;;;;;;33.37;19.43;;;;;-2.60;101767.00;;;;10386265;28;20559;-77
2021/01/09 04:51:31;;;;;;;37.23;20.03;;;;;-2.50;101769.00;;;;10401312;28;20242;-77
2021/01/09 04:56:34;;;;;;;55.87;24.40;;;;;-2.40;101775.00;;;;10400727;28;20194;-77
2021/01/09 05:01:37;;;;;;;74.43;25.90;;;;;-2.40;101780.00;;;;10416960;28;20219;-77
2021/01/09 05:06:41;;;;;;;64.90;26.30;;;;;-2.30;101794.00;;;;10383865;28;20282;-77
2021/01/09 05:11:44;;;;;;;100.40;29.13;;;;;-2.20;101781.00;;;;10383935;28;20187;-77
2021/01/09 05:16:46;;;;;;;112.03;34.20;;;;;-2.10;101786.00;;;;10434228;28;20229;-77
2021/01/09 05:21:51;;;;;;;105.93;29.80;;;;;-2.10;101785.00;;;;10441549;28;20210;-77
2021/01/09 05:26:54;;;;;;;82.60;27.07;;;;;-2.10;101795.00;;;;10424140;28;20201;-77
2021/01/09 05:31:56;;;;;;;60.73;25.03;;;;;-2.10;101802.00;;;;10457598;28;20225;-77
2021/01/09 05:37:14;;;;;;;55.37;25.03;;;;;-2.10;101803.00;;;;10457188;28;20223;-77
2021/01/09 05:42:16;;;;;;;55.77;22.57;;;;;-2.10;101815.00;;;;10423541;28;20268;-77
2021/01/09 05:47:24;;;;;;;68.30;23.80;;;;;-2.20;101814.00;;;;10419296;28;20551;-77
2021/01/09 05:52:26;;;;;;;59.47;24.37;;;;;-2.20;101824.00;;;;10416097;28;20193;-77
2021/01/09 05:57:33;;;;;;;67.03;25.60;;;;;-2.20;101824.00;;;;10382975;28;20598;-77
2021/01/09 06:02:59;;;;;;;106.70;29.87;;;;;-2.20;101829.00;;;;10398765;28;20218;-77
2021/01/09 06:08:26;;;;;;;72.33;24.03;;;;;-2.20;101828.00;;;;10365960;28;20286;-77
2021/01/09 06:13:30;;;;;;;71.97;24.33;;;;;-2.10;101834.00;;;;10390117;28;20197;-77
2021/01/09 06:18:33;;;;;;;63.03;25.37;;;;;-2.10;101838.00;;;;10440148;28;20190;-77
2021/01/09 06:23:35;;;;;;;59.60;24.83;;;;;-2.00;101839.00;;;;10440036;28;20213;-77
2021/01/09 06:28:39;;;;;;;59.23;24.20;;;;;-1.90;101845.00;;;;10422994;28;20696;-77
2021/01/09 06:33:41;;;;;;;69.00;34.17;;;;;-2.00;101856.00;;;;10422693;28;20232;-77
2021/01/09 06:38:48;;;;;;;86.07;51.83;;;;;-2.10;101852.00;;;;10423098;28;20190;-77
2021/01/09 06:43:52;;;;;;;47.13;25.23;;;;;-2.20;101851.00;;;;10392856;28;20693;-77
2021/01/09 06:48:54;;;;;;;45.60;22.43;;;;;-2.30;101864.00;;;;10423447;28;20554;-77
2021/01/09 06:54:19;;;;;;;41.40;20.63;;;;;-2.40;101872.00;;;;10454565;28;20194;-77
2021/01/09 06:59:31;;;;;;;37.27;19.37;;;;;-2.50;101879.00;;;;10375240;28;20211;-77
2021/01/09 07:05:02;;;;;;;40.50;20.23;;;;;-2.50;101882.00;;;;10436785;28;20210;-77
2021/01/09 07:10:10;;;;;;;43.73;20.20;;;;;-2.60;101884.00;;;;10422060;28;20292;-77
2021/01/09 07:15:13;;;;;;;46.73;21.73;;;;;-2.60;101888.00;;;;10457534;28;20229;-77
2021/01/09 07:20:17;;;;;;;47.33;21.73;;;;;-2.60;101886.00;;;;10411033;28;20248;-77
2021/01/09 07:25:31;;;;;;;49.70;20.50;;;;;-2.60;101902.00;;;;10432047;28;20761;-77
2021/01/09 07:30:32;;;;;;;48.00;20.97;;;;;-2.70;101894.00;;;;10405381;28;20187;-77
2021/01/09 07:35:36;;;;;;;52.60;25.20;;;;;-2.70;101905.00;;;;10406317;28;20187;-77
2021/01/09 07:40:46;;;;;;;48.73;23.87;;;;;-2.70;101901.00;;;;10404791;28;20187;-77
2021/01/09 07:45:49;;;;;;;52.50;24.57;;;;;-2.70;101903.00;;;;10393082;28;20222;-77
2021/01/09 07:50:51;;;;;;;40.80;20.63;;;;;-2.70;101907.00;;;;10419274;28;20896;-77
2021/01/09 07:55:53;;;;;;;49.77;24.60;;;;;-2.70;101916.00;;;;10425548;28;20191;-77
2021/01/09 08:00:56;;;;;;;45.13;23.07;;;;;-2.60;101919.00;;;;10461771;28;20199;-77
2021/01/09 08:05:58;;;;;;;46.87;21.83;;;;;-2.50;101910.00;;;;10412500;28;20281;-77
2021/01/09 08:11:04;;;;;;;56.53;24.80;;;;;-2.50;101910.00;;;;10445066;28;20589;-77
2021/01/09 08:16:08;;;;;;;63.53;24.13;;;;;-2.40;101914.00;;;;10438548;28;20190;-77
2021/01/09 08:21:10;;;;;;;57.00;24.03;;;;;-2.30;101922.00;;;;10424354;28;20277;-77
2021/01/09 08:26:11;;;;;;;92.77;36.73;;;;;-2.20;101928.00;;;;10439927;28;20191;-77
2021/01/09 08:31:13;;;;;;;69.90;32.03;;;;;-2.10;101939.00;;;;10453402;28;20194;-77
2021/01/09 08:36:15;;;;;;;65.13;26.90;;;;;-2.00;101932.00;;;;10392134;28;20285;-77
2021/01/09 08:41:17;;;;;;;55.93;26.67;;;;;-1.90;101932.00;;;;10386313;28;20673;-77
2021/01/09 08:46:18;;;;;;;53.70;26.53;;;;;-1.70;101947.00;;;;10422893;28;20214;-77
2021/01/09 08:51:22;;;;;;;52.73;26.53;;;;;-1.50;101949.00;;;;10415690;28;20197;-77
2021/01/09 08:56:27;;;;;;;69.50;26.73;;;;;-1.30;101949.00;;;;10441771;28;20661;-77
2021/01/09 09:01:35;;;;;;;76.83;27.73;;;;;-1.10;101953.00;;;;10385604;28;20215;-78
2021/01/09 09:06:41;;;;;;;77.00;26.57;;;;;-1.00;101957.00;;;;10418547;28;20281;-77
2021/01/09 09:11:52;;;;;;;77.00;23.63;;;;;-0.90;101968.00;;;;10407165;28;20619;-77
2021/01/09 09:17:03;;;;;;;73.17;24.10;;;;;-0.90;101968.00;;;;10408718;28;20191;-77
2021/01/09 09:22:05;;;;;;;67.80;26.27;;;;;-0.80;101972.00;;;;10435846;28;20209;-78
2021/01/09 09:27:27;;;;;;;63.77;24.13;;;;;-0.70;101976.00;;;;10397350;28;20266;-77
2021/01/09 09:32:28;;;;;;;63.00;26.47;;;;;-0.60;101982.00;;;;10494302;28;20225;-78
2021/01/09 09:37:36;;;;;;;76.43;25.53;;;;;-0.50;101986.00;;;;10423942;28;20653;-77
2021/01/09 09:42:37;;;;;;;68.77;26.90;;;;;-0.30;102002.00;;;;10438549;28;20245;-78
2021/01/09 09:47:46;;;;;;;81.80;27.30;;;;;0.00;101996.00;;;;10432316;28;20236;-78
2021/01/09 09:53:02;;;;;;;61.80;26.23;;;;;0.20;101997.00;;;;10433372;28;20198;-78
2021/01/09 09:58:10;;;;;;;72.27;28.77;;;;;0.40;101998.00;;;;10415489;28;20221;-78
2021/01/09 10:03:12;;;;;;;97.60;36.13;;;;;0.70;102004.00;;;;10467626;28;20210;-78
2021/01/09 10:08:15;;;;;;;72.90;31.83;;;;;1.00;102000.00;;;;10437395;28;20210;-78
2021/01/09 10:13:27;;;;;;;59.80;30.20;;;;;1.20;101995.00;;;;10439572;28;20209;-78
2021/01/09 10:18:30;;;;;;;53.63;28.37;;;;;1.40;102000.00;;;;10419242;28;20202;-78
2021/01/09 10:23:31;;;;;;;49.53;27.03;;;;;1.70;102001.00;;;;10477295;28;20210;-78
2021/01/09 10:28:33;;;;;;;38.07;23.63;;;;;1.90;101992.00;;;;10418497;28;20261;-78
2021/01/09 10:33:34;;;;;;;40.03;21.90;;;;;2.10;101994.00;;;;10449102;28;20646;-78
2021/01/09 10:38:35;;;;;;;36.97;21.57;;;;;2.20;101995.00;;;;10456037;28;20577;-78
2021/01/09 10:43:37;;;;;;;38.20;20.63;;;;;2.40;101988.00;;;;10424145;28;20284;-78
2021/01/09 10:48:38;;;;;;;37.80;21.50;;;;;2.60;101981.00;;;;10436917;28;20204;-78
2021/01/09 10:53:39;;;;;;;34.23;21.40;;;;;2.80;101976.00;;;;10450940;28;20197;-78
2021/01/09 10:58:41;;;;;;;47.97;26.50;;;;;3.00;101974.00;;;;10441736;28;20181;-78
2021/01/09 11:03:43;;;;;;;29.17;19.80;;;;;3.20;101976.00;;;;10449766;28;20580;-78
2021/01/09 11:08:44;;;;;;;27.47;18.03;;;;;3.30;101959.00;;;;10450739;28;20606;-78
2021/01/09 11:13:46;;;;;;;35.33;20.73;;;;;3.50;101954.00;;;;10432076;28;20732;-77
2021/01/09 11:18:48;;;;;;;38.33;22.90;;;;;3.60;101953.00;;;;10436722;28;20201;-78
2021/01/09 11:23:49;;;;;;;28.53;19.40;;;;;3.80;101955.00;;;;10416932;28;20221;-77
2021/01/09 11:28:54;;;;;;;25.13;18.43;;;;;3.90;101956.00;;;;10417851;28;20256;-77
2021/01/09 11:33:56;;;;;;;30.70;18.70;;;;;4.00;101954.00;;;;10421287;28;20191;-78
2021/01/09 11:38:57;;;;;;;29.90;19.40;;;;;4.20;101949.00;;;;10466469;28;20216;-78
2021/01/09 11:43:58;;;;;;;27.30;19.07;;;;;4.30;101958.00;;;;10418980;28;20213;-77
2021/01/09 11:49:03;;;;;;;27.03;18.27;;;;;4.40;101950.00;;;;10390380;28;20206;-77
2021/01/09 11:54:04;;;;;;;23.27;17.33;;;;;4.60;101959.00;;;;10462176;28;20182;-77
2021/01/09 11:59:07;;;;;;;30.13;18.70;;;;;4.70;101948.00;;;;10434998;28;20197;-78
2021/01/09 12:04:10;;;;;;;27.53;18.57;;;;;4.80;101945.00;;;;10461127;28;21058;-77
2021/01/09 12:09:11;;;;;;;29.07;19.77;;;;;4.90;101952.00;;;;10431208;28;20198;-77
2021/01/09 12:14:14;;;;;;;26.53;19.37;;;;;5.10;101948.00;;;;10448446;28;20270;-77
2021/01/09 12:19:15;;;;;;;28.97;17.80;;;;;5.30;101938.00;;;;10442614;28;20199;-77
2021/01/09 12:24:16;;;;;;;25.70;17.87;;;;;5.40;101940.00;;;;10430484;28;20237;-77
2021/01/09 12:29:17;;;;;;;27.03;18.17;;;;;5.60;101939.00;;;;10459430;28;20201;-77
2021/01/09 12:34:19;;;;;;;26.57;17.60;;;;;5.70;101931.00;;;;10417363;28;20189;-77
2021/01/09 12:39:20;;;;;;;25.57;16.73;;;;;5.60;101925.00;;;;10455824;28;20682;-77
2021/01/09 12:44:21;;;;;;;25.50;16.37;;;;;5.00;101936.00;;;;10426164;28;20253;-77
2021/01/09 12:49:23;;;;;;;21.73;16.93;;;;;5.40;101919.00;;;;10429261;28;20202;-76
2021/01/09 12:54:25;;;;;;;23.73;17.30;;;;;5.50;101918.00;;;;10417015;28;20265;-77
2021/01/09 12:59:26;;;;;;;27.23;18.50;;;;;5.60;101915.00;;;;10424214;28;20233;-77
2021/01/09 13:04:28;;;;;;;25.40;15.00;;;;;5.60;101912.00;;;;10458746;28;20210;-77
2021/01/09 13:09:40;;;;;;;25.90;16.17;;;;;5.70;101911.00;;;;10440049;28;20626;-77
2021/01/09 13:14:41;;;;;;;23.47;16.73;;;;;5.80;101917.00;;;;10419495;28;20187;-77
2021/01/09 13:19:43;;;;;;;22.27;16.03;;;;;5.80;101900.00;;;;10435832;28;20202;-77
2021/01/09 13:24:46;;;;;;;24.63;16.60;;;;;5.80;101903.00;;;;10427421;28;20198;-77
2021/01/09 13:29:48;;;;;;;20.77;15.00;;;;;5.90;101894.00;;;;10424651;28;20205;-77
2021/01/09 13:34:50;;;;;;;22.80;13.70;;;;;5.90;101896.00;;;;10430922;28;20194;-77
2021/01/09 13:39:51;;;;;;;22.43;14.87;;;;;5.90;101896.00;;;;10439355;28;20189;-77
2021/01/09 13:44:52;;;;;;;21.40;14.93;;;;;5.80;101887.00;;;;10407085;28;20302;-77
2021/01/09 13:49:54;;;;;;;21.70;15.07;;;;;5.70;101891.00;;;;10407886;28;20332;-77
2021/01/09 13:55:03;;;;;;;22.47;14.17;;;;;5.60;101896.00;;;;10436435;28;20237;-77
2021/01/09 14:00:06;;;;;;;22.90;13.93;;;;;5.60;101903.00;;;;10384429;28;20348;-77
2021/01/09 14:05:14;;;;;;;26.37;15.53;;;;;5.60;101899.00;;;;10415852;28;20334;-77
2021/01/09 14:10:22;;;;;;;22.10;15.87;;;;;5.50;101901.00;;;;10413418;28;20199;-77
2021/01/09 14:15:24;;;;;;;20.83;14.40;;;;;5.30;101903.00;;;;10397156;28;20194;-77
2021/01/09 14:20:45;;;;;;;21.53;14.43;;;;;5.00;101905.00;;;;10401023;28;20195;-77
2021/01/09 14:25:56;;;;;;;24.73;14.47;;;;;4.80;101918.00;;;;10406897;28;20237;-77
2021/01/09 14:30:57;;;;;;;26.03;15.93;;;;;4.50;101920.00;;;;10398408;28;20688;-77
2021/01/09 14:35:59;;;;;;;26.67;17.23;;;;;4.40;101933.00;;;;10433079;28;20217;-77
2021/01/09 14:41:02;;;;;;;23.87;15.80;;;;;4.30;101928.00;;;;10417075;28;20195;-77
2021/01/09 14:46:04;;;;;;;27.43;16.50;;;;;4.20;101930.00;;;;10390090;28;20217;-77
2021/01/09 14:51:05;;;;;;;24.03;16.90;;;;;4.10;101930.00;;;;10426442;28;20623;-77
2021/01/09 14:56:10;;;;;;;33.03;23.13;;;;;3.90;101924.00;;;;10434504;28;20182;-77
2021/01/09 15:01:12;;;;;;;37.53;25.97;;;;;3.70;101931.00;;;;10440213;28;20209;-78
2021/01/09 15:06:20;;;;;;;34.97;25.43;;;;;3.40;101942.00;;;;10379095;28;20225;-77
2021/01/09 15:11:22;;;;;;;41.67;27.00;;;;;3.20;101951.00;;;;10431463;28;20191;-78
2021/01/09 15:16:23;;;;;;;38.63;28.80;;;;;3.00;101945.00;;;;10427075;28;20191;-77
2021/01/09 15:21:24;;;;;;;41.87;28.40;;;;;2.90;101959.00;;;;10414736;28;20289;-77
2021/01/09 15:26:26;;;;;;;36.13;23.77;;;;;2.60;101968.00;;;;10426377;28;20187;-77
2021/01/09 15:31:27;;;;;;;36.33;26.40;;;;;2.50;101979.00;;;;10413123;28;20190;-77
2021/01/09 15:36:38;;;;;;;40.77;27.37;;;;;2.30;101979.00;;;;10427066;28;20282;-77
2021/01/09 15:41:39;;;;;;;44.67;31.03;;;;;2.10;101989.00;;;;10427081;28;20761;-77
2021/01/09 15:46:41;;;;;;;44.00;29.73;;;;;1.80;101987.00;;;;10437744;28;20207;-77
2021/01/09 15:51:43;;;;;;;33.73;25.07;;;;;1.60;101990.00;;;;10433724;28;20237;-78
2021/01/09 15:56:45;;;;;;;35.43;27.00;;;;;1.30;101990.00;;;;10434190;28;20214;-78
2021/01/09 16:01:49;;;;;;;31.23;24.47;;;;;1.00;101990.00;;;;10395540;28;20535;-78
2021/01/09 16:06:55;;;;;;;34.43;24.93;;;;;0.80;101995.00;;;;10398956;28;20257;-78
2021/01/09 16:11:58;;;;;;;39.30;28.17;;;;;0.70;102001.00;;;;10400728;28;20194;-78
2021/01/09 16:17:02;;;;;;;44.13;29.03;;;;;0.60;101993.00;;;;10437700;28;20345;-78
2021/01/09 16:22:03;;;;;;;38.37;27.00;;;;;0.40;101999.00;;;;10461115;28;20214;-78
2021/01/09 16:27:09;;;;;;;43.53;30.07;;;;;0.20;102001.00;;;;10427084;28;20214;-79
2021/01/09 16:32:11;;;;;;;44.57;30.63;;;;;0.10;102011.00;;;;10426562;28;20194;-78
2021/01/09 16:37:13;;;;;;;42.17;29.33;;;;;0.00;102005.00;;;;10459351;28;20198;-78
2021/01/09 16:42:14;;;;;;;55.97;35.80;;;;;0.00;102008.00;;;;10443051;28;20210;-78
2021/01/09 16:47:15;;;;;;;44.57;30.30;;;;;0.10;102005.00;;;;10442325;28;20232;-78
2021/01/09 16:52:17;;;;;;;44.70;29.80;;;;;0.10;102009.00;;;;10443159;28;21006;-78
2021/01/09 16:57:18;;;;;;;45.27;30.57;;;;;0.10;102018.00;;;;10459236;28;20194;-78
2021/01/09 17:02:22;;;;;;;42.93;29.47;;;;;0.00;102016.00;;;;10458896;28;20241;-78
2021/01/09 17:07:23;;;;;;;42.40;29.30;;;;;0.00;102013.00;;;;10425686;28;20195;-78
2021/01/09 17:12:25;;;;;;;43.13;27.90;;;;;-0.10;102011.00;;;;10418462;28;20639;-78
2021/01/09 17:17:26;;;;;;;50.60;33.07;;;;;0.00;102019.00;;;;10432772;28;20198;-78
2021/01/09 17:22:48;;;;;;;67.90;38.00;;;;;0.10;102022.00;;;;10402275;28;20297;-78
2021/01/09 17:28:09;;;;;;;53.77;34.17;;;;;0.20;102023.00;;;;10401997;28;20194;-78
2021/01/09 17:33:13;;;;;;;54.50;35.53;;;;;0.20;102020.00;;;;10399635;28;20238;-78
2021/01/09 17:38:14;;;;;;;77.03;42.53;;;;;0.30;102030.00;;;;10398351;28;20261;-78
2021/01/09 17:43:15;;;;;;;76.97;42.37;;;;;0.30;102034.00;;;;10415633;28;20224;-78
2021/01/09 17:48:36;;;;;;;80.90;41.10;;;;;0.30;102026.00;;;;10411434;28;20191;-78
2021/01/09 17:53:38;;;;;;;94.60;51.93;;;;;0.30;102031.00;;;;10378933;28;20249;-78
2021/01/09 17:58:39;;;;;;;83.70;45.43;;;;;0.30;102035.00;;;;10429927;28;20191;-78
2021/01/09 18:03:41;;;;;;;81.13;44.90;;;;;0.20;102032.00;;;;10426357;28;20227;-78
2021/01/09 18:08:45;;;;;;;83.20;43.37;;;;;0.10;102039.00;;;;10409566;28;20195;-78
2021/01/09 18:13:47;;;;;;;70.33;36.47;;;;;0.00;102035.00;;;;10404635;28;20193;-78
2021/01/09 18:18:52;;;;;;;67.00;39.70;;;;;-0.10;102039.00;;;;10395927;28;20191;-78
2021/01/09 18:23:55;;;;;;;66.83;41.00;;;;;-0.20;102049.00;;;;10390946;28;20214;-78
2021/01/09 18:29:04;;;;;;;79.20;43.07;;;;;-0.20;102045.00;;;;10406248;28;20223;-78
2021/01/09 18:34:07;;;;;;;61.73;35.90;;;;;-0.30;102045.00;;;;10388941;28;20179;-78
2021/01/09 18:39:08;;;;;;;62.73;33.10;;;;;-0.30;102034.00;;;;10373858;28;20285;-78
2021/01/09 18:44:10;;;;;;;63.63;35.87;;;;;-0.50;102039.00;;;;10420042;28;20284;-78
2021/01/09 18:49:22;;;;;;;63.80;36.53;;;;;-0.50;102049.00;;;;10415852;28;20193;-78
2021/01/09 18:54:28;;;;;;;63.17;35.53;;;;;-0.60;102046.00;;;;10430736;28;20190;-78
2021/01/09 18:59:30;;;;;;;61.67;37.00;;;;;-0.60;102051.00;;;;10431212;28;20210;-78
2021/01/09 19:04:32;;;;;;;63.33;35.47;;;;;-0.70;102047.00;;;;10397990;28;20743;-78
2021/01/09 19:09:53;;;;;;;62.23;34.77;;;;;-0.70;102057.00;;;;10462755;28;20197;-78
2021/01/09 19:15:03;;;;;;;63.93;37.27;;;;;-0.70;102044.00;;;;10435825;28;20198;-78
2021/01/09 19:20:12;;;;;;;60.43;36.63;;;;;-0.70;102056.00;;;;10435658;28;20229;-78
2021/01/09 19:25:17;;;;;;;55.60;34.33;;;;;-0.70;102058.00;;;;10435180;28;20202;-78
2021/01/09 19:30:23;;;;;;;62.87;36.87;;;;;-0.70;102060.00;;;;10435496;28;20593;-78
2021/01/09 19:35:26;;;;;;;62.07;33.03;;;;;-0.70;102052.00;;;;10435014;28;20354;-77
2021/01/09 19:40:33;;;;;;;58.53;34.57;;;;;-0.80;102060.00;;;;10435101;28;20292;-78
2021/01/09 19:45:43;;;;;;;58.73;35.00;;;;;-0.80;102056.00;;;;10447011;28;20757;-77
2021/01/09 19:50:47;;;;;;;60.03;34.67;;;;;-0.90;102067.00;;;;10434947;28;20190;-78
2021/01/09 19:55:53;;;;;;;66.10;39.33;;;;;-0.90;102066.00;;;;10449394;28;20649;-77
2021/01/09 20:00:55;;;;;;;64.33;38.30;;;;;-0.70;102067.00;;;;10467003;28;20197;-78
2021/01/09 20:06:04;;;;;;;74.53;42.30;;;;;-0.50;102058.00;;;;10448010;28;20220;-78
2021/01/09 20:11:08;;;;;;;66.30;39.60;;;;;-0.40;102054.00;;;;10467163;28;20240;-78
2021/01/09 20:16:25;;;;;;;65.40;37.80;;;;;-0.40;102052.00;;;;10418093;28;20642;-78
2021/01/09 20:21:34;;;;;;;64.33;36.33;;;;;-0.40;102064.00;;;;10416277;28;20197;-77
2021/01/09 20:26:38;;;;;;;66.30;36.50;;;;;-0.40;102066.00;;;;10448476;28;20221;-77
2021/01/09 20:31:45;;;;;;;63.87;34.20;;;;;-0.40;102074.00;;;;10448791;28;20253;-78
2021/01/09 20:36:53;;;;;;;87.37;47.47;;;;;-0.40;102075.00;;;;10431188;28;20205;-78
2021/01/09 20:41:55;;;;;;;64.37;36.83;;;;;-0.50;102064.00;;;;10439780;28;20281;-78
2021/01/09 20:46:58;;;;;;;65.27;37.03;;;;;-0.40;102075.00;;;;10410614;28;20219;-78
2021/01/09 20:51:59;;;;;;;66.93;36.47;;;;;-0.40;102075.00;;;;10373126;28;20206;-78
2021/01/09 20:57:03;;;;;;;75.17;38.63;;;;;-0.30;102074.00;;;;10391003;28;20709;-77
2021/01/09 21:02:04;;;;;;;71.00;38.83;;;;;-0.20;102086.00;;;;10389747;28;20234;-78
2021/01/09 21:07:06;;;;;;;66.77;38.80;;;;;-0.20;102079.00;;;;10374188;28;20199;-77
2021/01/09 21:12:12;;;;;;;65.20;36.30;;;;;-0.30;102075.00;;;;10406382;28;20527;-78
2021/01/09 21:17:14;;;;;;;62.00;36.07;;;;;-0.40;102083.00;;;;10428423;28;20202;-78
2021/01/09 21:22:16;;;;;;;69.30;36.17;;;;;-0.40;102081.00;;;;10464016;28;20264;-78
2021/01/09 21:27:17;;;;;;;69.33;34.97;;;;;-0.40;102079.00;;;;10429543;28;20241;-77
2021/01/09 21:32:19;;;;;;;79.40;40.70;;;;;-0.30;102066.00;;;;10446202;28;20190;-77
2021/01/09 21:37:20;;;;;;;79.83;40.00;;;;;-0.30;102070.00;;;;10444620;28;20557;-78
2021/01/09 21:42:23;;;;;;;71.70;37.17;;;;;-0.30;102070.00;;;;10448672;28;20219;-77
2021/01/09 21:47:24;;;;;;;76.57;38.80;;;;;-0.20;102077.00;;;;10404096;28;20320;-78
2021/01/09 21:52:26;;;;;;;79.70;39.07;;;;;-0.20;102075.00;;;;10416880;28;20197;-78
2021/01/09 21:57:27;;;;;;;72.87;38.93;;;;;-0.20;102079.00;;;;10428662;28;20244;-77
2021/01/09 22:02:29;;;;;;;82.87;40.03;;;;;-0.30;102069.00;;;;10446095;28;20210;-78
2021/01/09 22:07:30;;;;;;;77.30;38.30;;;;;-0.40;102074.00;;;;10429500;28;20202;-78
2021/01/09 22:12:31;;;;;;;93.23;42.47;;;;;-0.30;102088.00;;;;10412636;28;20822;-78
2021/01/09 22:17:33;;;;;;;86.10;41.07;;;;;-0.30;102084.00;;;;10395243;28;20214;-78
2021/01/09 22:22:36;;;;;;;78.60;40.63;;;;;-0.30;102088.00;;;;10403944;28;20293;-78
2021/01/09 22:27:38;;;;;;;80.40;39.03;;;;;-0.40;102082.00;;;;10422290;28;20244;-78
2021/01/09 22:32:39;;;;;;;80.23;42.07;;;;;-0.50;102078.00;;;;10387031;28;20190;-78
2021/01/09 22:37:40;;;;;;;69.90;39.07;;;;;-0.70;102080.00;;;;10386890;28;20273;-78
2021/01/09 22:42:42;;;;;;;79.80;40.50;;;;;-0.70;102077.00;;;;10387320;28;20223;-78
2021/01/09 22:47:46;;;;;;;67.40;36.67;;;;;-0.80;102072.00;;;;10427052;28;20601;-78
2021/01/09 22:52:47;;;;;;;78.27;37.27;;;;;-0.90;102075.00;;;;10451491;28;20193;-78
2021/01/09 22:57:50;;;;;;;58.47;31.23;;;;;-0.90;102086.00;;;;10436520;28;20218;-78
2021/01/09 23:02:52;;;;;;;61.83;32.47;;;;;-1.00;102072.00;;;;10394140;28;20280;-78
2021/01/09 23:07:53;;;;;;;61.20;31.93;;;;;-1.10;102074.00;;;;10426757;28;20667;-77
2021/01/09 23:12:54;;;;;;;61.40;30.70;;;;;-1.10;102063.00;;;;10409673;28;20234;-77
2021/01/09 23:17:56;;;;;;;51.47;30.50;;;;;-1.10;102065.00;;;;10376456;28;20195;-78
2021/01/09 23:22:58;;;;;;;69.10;34.07;;;;;-1.10;102064.00;;;;10407674;28;20269;-78
2021/01/09 23:28:02;;;;;;;60.70;32.70;;;;;-1.20;102058.00;;;;10408167;28;20282;-77
2021/01/09 23:33:05;;;;;;;60.60;33.07;;;;;-1.10;102061.00;;;;10391118;28;20596;-78
2021/01/09 23:38:11;;;;;;;54.13;30.27;;;;;-1.10;102067.00;;;;10425037;28;20187;-77
2021/01/09 23:43:17;;;;;;;61.13;31.60;;;;;-1.00;102066.00;;;;10399463;28;20733;-78
2021/01/09 23:48:19;;;;;;;61.63;32.53;;;;;-0.80;102063.00;;;;10465463;28;20225;-77
2021/01/09 23:53:20;;;;;;;64.13;34.07;;;;;-0.70;102068.00;;;;10448934;28;20213;-78
2021/01/09 23:58:21;;;;;;;63.00;34.07;;;;;-0.60;102066.00;;;;10467104;28;20190;-78
